Briefing drone pour Beaurieux

Rechercher une autre localisation

Conditions de vol :


Nous sommes le : Vendredi 24 septembre 2021
Il est 15:01 UTC (17:01 LT)

Lever de soleil : 05:08 UTC (07:08 LT)
Coucher de soleil : 18:05 UTC (20:05 LT)

Météo

L'essentiel des conditions de vol

VIGILANCE MÉTÉO FRANCE - Aisne (02)
Pas de vigilances particulieres
METAR de LFQA
LFQA 241430Z AUTO 22004KT 120V270 9999 SCT037 23/14 Q1017

Date d'émission: 24/09/2021
Heure d'émission: 14:30 UTC
Vent: 220° (variable du 120° au 270°) pour 4 KT (7 km/h)
Visibilité horizontale: > 10 km
Plafond :
- Nuages épars à 3700ft (1128m)
Température: 23 °C
Point de rosée: 14 °C
Humidité: 57%
Pression (QNH): 1017 hPa
Prévision 24h pour Reims (17 km)
Vent : 123° pour 3 KT (11 km/h)
Temperature Maxi: 23 °C
Temperature Min: 23 °C
Humidité : 52%
Condition : Couvert



Warning: count(): Parameter must be an array or an object that implements Countable in /homepages/6/d509196549/htdocs/droneoxygene/briefing.php on line 743
WEBCAM POUR BEAURIEUX

Réglementation

Voler en sécurité

CARTES AERONAUTIQUE 1/500.000
CARTES VAC (LFQA)
SUP AIP




Chargement des AIP...
NOTAM (BEAURIEUX + Terrain à proximité / FIR )




Chargement des NOTAMS...
CONTACT PREFECTURE 02


Avertissement : Les données mises à disposition sont indicatives. Oxygène Drone ne pourra être tenu responsable de dégâts causés aux biens et aux personnes.